createdAt,value
2022-12-19T11:45:49.903Z,36.90
2022-12-19T11:48:39.035Z,34.20
2022-12-19T11:59:59.905Z,39.90
2022-12-19T12:16:12.552Z,38.50
2022-12-19T12:26:41.088Z,41.50
2022-12-19T12:35:36.473Z,43.50
2022-12-19T12:44:46.449Z,44.70
2022-12-19T12:48:43.075Z,45.40
2022-12-19T12:51:57.029Z,46.10
2022-12-19T13:02:36.394Z,49.00
2022-12-19T13:05:36.075Z,49.20
2022-12-19T13:15:49.129Z,47.40
2022-12-19T13:18:33.366Z,51.00
2022-12-19T13:21:05.619Z,56.20
2022-12-19T13:24:16.334Z,52.90
2022-12-19T13:26:50.568Z,53.40
2022-12-19T13:29:53.290Z,52.50
2022-12-19T13:32:23.447Z,50.00
2022-12-19T13:35:01.757Z,54.40
2022-12-19T13:39:57.593Z,48.90
2022-12-19T13:40:51.690Z,49.70
2022-12-19T13:43:46.863Z,50.40
2022-12-19T13:46:28.854Z,48.80
2022-12-19T13:49:05.945Z,50.60
2022-12-19T13:51:45.781Z,54.10
2022-12-19T13:54:23.978Z,53.50
2022-12-19T13:56:54.278Z,52.50
2022-12-19T13:59:26.241Z,55.90
2022-12-19T14:02:06.444Z,54.40
2022-12-19T14:04:35.292Z,56.10
2022-12-19T14:07:06.347Z,53.50
2022-12-19T14:11:26.841Z,54.90
2022-12-19T14:13:51.961Z,58.20
2022-12-19T14:15:40.646Z,56.90
2022-12-19T14:18:44.546Z,59.20
2022-12-19T14:22:05.899Z,54.00
2022-12-19T14:24:17.638Z,56.90
2022-12-19T14:28:23.964Z,56.40
2022-12-19T14:30:19.845Z,55.40
2022-12-19T14:33:44.636Z,48.80
2022-12-19T14:36:05.899Z,55.40
2022-12-19T14:39:22.829Z,60.80
2022-12-19T14:41:40.231Z,55.10
2022-12-19T14:52:52.417Z,60.50
2022-12-19T14:54:02.817Z,60.80
2022-12-19T14:54:16.267Z,61.60
2022-12-19T14:54:31.363Z,64.10
2022-12-19T14:58:58.315Z,61.10
2022-12-19T15:01:29.010Z,61.80
2022-12-19T15:04:52.764Z,65.20
2022-12-19T15:07:07.491Z,61.70
2022-12-19T15:11:07.603Z,61.50
2022-12-19T15:14:51.284Z,64.30
2022-12-19T15:16:01.406Z,62.30
2022-12-19T15:18:40.233Z,61.90
2022-12-19T15:21:12.531Z,64.60
2022-12-19T15:23:44.853Z,61.30
2022-12-19T15:26:19.302Z,63.60
2022-12-19T15:28:52.236Z,62.30
2022-12-19T15:31:34.615Z,65.40
2022-12-19T15:34:34.729Z,57.20
2022-12-19T15:37:07.760Z,52.10
2022-12-19T15:39:39.242Z,64.70
2022-12-19T15:42:21.570Z,60.10
2022-12-19T15:44:52.203Z,59.60
2022-12-19T15:47:30.088Z,57.80
2022-12-19T15:50:02.288Z,57.60
2022-12-19T15:52:31.365Z,56.40
2022-12-19T15:55:03.381Z,58.50
2022-12-19T15:57:35.429Z,57.50
2022-12-19T16:00:07.925Z,55.50
2022-12-19T16:05:28.595Z,53.90
2022-12-19T16:07:58.437Z,42.50
2022-12-19T16:10:27.580Z,49.60
2022-12-19T16:12:57.981Z,47.60
2022-12-19T16:18:00.360Z,48.40
2022-12-19T16:20:31.247Z,52.90
2022-12-19T16:23:00.169Z,43.10
2022-12-19T16:25:34.095Z,45.40
2022-12-19T16:28:04.903Z,44.80
2022-12-19T16:30:35.270Z,38.20
2022-12-19T16:36:02.928Z,38.90
2022-12-19T16:38:21.636Z,38.90
2022-12-19T16:40:52.305Z,40.00
2022-12-19T16:43:29.213Z,40.80
2022-12-19T16:46:01.435Z,42.20
2022-12-19T16:48:31.440Z,42.20
2022-12-19T16:51:01.208Z,39.00
2022-12-19T16:53:30.514Z,36.30
2022-12-19T16:56:00.757Z,39.30
2022-12-19T16:58:30.145Z,34.90
2022-12-19T17:00:59.445Z,37.90
2022-12-19T17:03:35.811Z,36.50
2022-12-19T17:06:05.220Z,38.80
2022-12-19T17:08:34.365Z,37.50
2022-12-19T17:11:38.285Z,34.40
2022-12-19T17:14:13.217Z,36.30
2022-12-19T17:16:42.353Z,41.20
2022-12-19T17:19:19.165Z,36.90
2022-12-19T17:21:48.747Z,37.10
2022-12-19T17:24:18.182Z,31.50
2022-12-19T17:26:47.248Z,30.30
2022-12-19T17:29:16.247Z,31.70
2022-12-19T17:31:47.868Z,28.60
2022-12-19T17:34:22.344Z,28.90
2022-12-19T17:36:51.614Z,29.30
2022-12-19T17:39:22.459Z,27.00
2022-12-19T17:41:52.588Z,27.00
2022-12-19T17:44:21.674Z,25.20
2022-12-19T17:46:50.961Z,26.30
2022-12-19T17:49:25.509Z,25.40
2022-12-19T17:51:55.552Z,22.60
2022-12-19T17:54:25.556Z,24.40
2022-12-19T17:56:55.148Z,22.40
2022-12-19T17:59:24.612Z,23.80
2022-12-19T18:01:54.320Z,23.80
2022-12-19T18:04:24.169Z,21.80
2022-12-19T18:06:53.258Z,21.10
2022-12-19T18:09:24.145Z,23.00
2022-12-19T18:11:53.362Z,21.40
2022-12-19T18:14:22.414Z,19.40
2022-12-19T18:16:52.061Z,17.60
2022-12-19T18:19:24.344Z,23.20
2022-12-19T18:21:53.373Z,22.10
2022-12-19T18:24:22.339Z,22.90
2022-12-19T18:26:51.361Z,19.50
2022-12-19T18:29:20.266Z,20.00
2022-12-19T18:31:51.231Z,20.60
2022-12-19T18:34:26.239Z,20.10
2022-12-19T18:36:55.385Z,20.10
2022-12-19T18:39:26.634Z,20.00
2022-12-19T18:42:00.287Z,21.20
2022-12-19T18:44:29.462Z,20.30
2022-12-19T18:46:58.571Z,20.40
2022-12-19T18:49:34.138Z,20.70
2022-12-19T18:52:06.531Z,19.70
2022-12-19T18:54:36.065Z,18.10
2022-12-19T18:57:05.011Z,19.40
2022-12-19T18:59:33.897Z,27.40
2022-12-19T19:02:04.215Z,19.30
2022-12-19T19:04:33.545Z,19.50
2022-12-19T19:07:02.415Z,18.50
2022-12-19T19:09:31.365Z,19.30
2022-12-19T19:12:32.603Z,19.20
2022-12-19T19:15:01.707Z,17.00
2022-12-19T19:17:31.248Z,20.90
2022-12-19T19:20:03.118Z,20.00
2022-12-19T19:22:32.446Z,18.90
2022-12-19T19:25:01.248Z,17.30
2022-12-19T19:27:30.153Z,18.30
2022-12-19T19:29:59.089Z,17.80
2022-12-19T19:32:28.143Z,17.30
2022-12-19T19:34:57.122Z,18.20
2022-12-19T19:37:28.007Z,19.10
2022-12-19T19:39:57.027Z,17.70
2022-12-19T19:42:26.000Z,18.90
2022-12-19T19:44:55.250Z,16.70
2022-12-19T19:47:31.141Z,17.40
2022-12-19T19:50:00.286Z,15.80
2022-12-19T19:52:31.898Z,18.70
2022-12-19T19:55:00.829Z,22.60
2022-12-19T19:57:33.361Z,19.70
2022-12-19T20:00:03.239Z,18.00
2022-12-19T20:02:43.414Z,17.90
2022-12-19T20:05:12.621Z,18.70
2022-12-19T20:07:41.589Z,18.80
2022-12-19T20:10:12.323Z,18.00
2022-12-19T20:12:46.059Z,17.50
2022-12-19T20:15:17.922Z,16.80
2022-12-19T20:17:46.818Z,16.60
2022-12-19T20:20:15.873Z,16.10
2022-12-19T20:22:44.823Z,16.70
2022-12-19T20:25:13.747Z,17.30
2022-12-19T20:27:42.763Z,17.90
2022-12-19T20:30:13.314Z,17.20
2022-12-19T20:32:42.626Z,15.80
2022-12-19T20:35:14.739Z,16.60
2022-12-19T20:37:44.319Z,16.50
2022-12-19T20:40:13.632Z,16.90
2022-12-19T20:42:42.663Z,17.00
2022-12-19T20:45:11.607Z,16.10
2022-12-19T20:47:40.463Z,18.10
2022-12-19T20:50:12.345Z,18.90
2022-12-19T20:52:41.504Z,17.00
2022-12-19T20:55:11.052Z,16.70
2022-12-19T20:57:40.430Z,17.10
2022-12-19T21:00:12.499Z,16.10
2022-12-19T21:03:24.992Z,17.80
2022-12-19T21:05:30.327Z,18.00
2022-12-19T21:07:59.159Z,15.10
2022-12-19T21:10:27.979Z,16.30
2022-12-19T21:12:57.087Z,15.00
2022-12-19T21:15:25.935Z,18.10
2022-12-19T21:17:54.749Z,16.00
2022-12-19T21:20:24.665Z,16.70
2022-12-19T21:22:56.060Z,16.30
2022-12-19T21:25:25.000Z,17.00
2022-12-19T21:27:53.725Z,16.50
2022-12-19T21:30:23.350Z,15.90
2022-12-19T21:32:52.220Z,16.70
2022-12-19T21:35:21.159Z,19.00
2022-12-19T21:37:51.373Z,16.40
2022-12-19T21:40:20.646Z,17.00
2022-12-19T21:42:49.382Z,17.60
2022-12-19T21:45:18.497Z,17.10
2022-12-19T21:47:47.244Z,18.60
2022-12-19T21:50:16.023Z,17.60
2022-12-19T21:52:44.940Z,17.90
2022-12-19T21:55:13.704Z,23.50
2022-12-19T21:57:42.962Z,19.10
2022-12-19T22:00:13.953Z,17.10
2022-12-19T22:03:11.640Z,18.50
2022-12-19T22:05:35.300Z,15.70
2022-12-19T22:08:04.208Z,19.40
2022-12-19T22:10:33.036Z,16.90
2022-12-19T22:13:01.872Z,17.90
2022-12-19T22:15:30.604Z,20.90
2022-12-19T22:17:59.803Z,17.40
2022-12-19T22:20:29.528Z,18.50
2022-12-19T22:22:58.351Z,17.50
2022-12-19T22:25:27.089Z,17.20
2022-12-19T22:27:56.653Z,16.30
2022-12-19T22:30:25.426Z,19.10
2022-12-19T22:32:54.377Z,16.10
2022-12-19T22:35:23.115Z,15.70
2022-12-19T22:37:51.947Z,16.80
2022-12-19T22:40:20.863Z,15.30
2022-12-19T22:46:12.779Z,17.70
2022-12-19T22:48:45.850Z,16.70
2022-12-19T22:51:22.932Z,17.80
2022-12-19T22:53:55.408Z,18.90
2022-12-19T22:56:30.104Z,16.90
2022-12-19T22:59:06.519Z,18.40
2022-12-19T23:01:40.868Z,16.50
2022-12-19T23:04:15.634Z,17.70
2022-12-19T23:06:53.965Z,18.30
2022-12-19T23:09:26.696Z,15.70
2022-12-19T23:11:59.082Z,17.00
2022-12-19T23:14:33.986Z,18.00
2022-12-19T23:17:06.501Z,15.70
2022-12-19T23:19:38.991Z,15.80
2022-12-19T23:22:11.318Z,15.50
2022-12-19T23:24:44.906Z,17.40
2022-12-19T23:27:17.541Z,16.40
2022-12-19T23:29:51.945Z,17.60
2022-12-19T23:32:24.852Z,17.30
2022-12-19T23:34:57.272Z,16.80
2022-12-19T23:37:29.772Z,19.80
2022-12-19T23:40:02.355Z,19.00
2022-12-19T23:42:36.454Z,15.30
2022-12-19T23:45:10.713Z,15.90
2022-12-19T23:47:42.979Z,17.10
2022-12-19T23:50:15.818Z,18.00
2022-12-19T23:52:48.139Z,16.50
2022-12-19T23:55:21.671Z,16.30
2022-12-19T23:57:53.936Z,16.10
